sensor_id;sensor_type;location;lat;lon;timestamp;P1;durP1;ratioP1;P2;durP2;ratioP2
46318;SDS011;32042;50.916;2.926;2023-02-22T00:01:18;67.37;;;18.00;;
46318;SDS011;32042;50.916;2.926;2023-02-22T00:03:59;76.17;;;17.93;;
46318;SDS011;32042;50.916;2.926;2023-02-22T00:06:25;57.60;;;17.37;;
46318;SDS011;32042;50.916;2.926;2023-02-22T00:08:51;66.17;;;17.90;;
46318;SDS011;32042;50.916;2.926;2023-02-22T00:11:18;58.73;;;18.73;;
46318;SDS011;32042;50.916;2.926;2023-02-22T00:13:44;50.57;;;17.87;;
46318;SDS011;32042;50.916;2.926;2023-02-22T00:16:15;55.73;;;19.73;;
46318;SDS011;32042;50.916;2.926;2023-02-22T00:18:41;47.07;;;18.13;;
46318;SDS011;32042;50.916;2.926;2023-02-22T00:21:08;31.07;;;18.57;;
46318;SDS011;32042;50.916;2.926;2023-02-22T00:23:35;52.60;;;20.40;;
46318;SDS011;32042;50.916;2.926;2023-02-22T00:26:04;33.57;;;18.10;;
46318;SDS011;32042;50.916;2.926;2023-02-22T00:28:30;28.47;;;17.77;;
46318;SDS011;32042;50.916;2.926;2023-02-22T00:30:56;37.67;;;19.07;;
46318;SDS011;32042;50.916;2.926;2023-02-22T00:33:23;38.67;;;19.20;;
46318;SDS011;32042;50.916;2.926;2023-02-22T00:35:49;35.13;;;19.03;;
46318;SDS011;32042;50.916;2.926;2023-02-22T00:38:16;36.93;;;18.97;;
46318;SDS011;32042;50.916;2.926;2023-02-22T00:40:43;27.90;;;17.37;;
46318;SDS011;32042;50.916;2.926;2023-02-22T00:43:09;33.60;;;19.30;;
46318;SDS011;32042;50.916;2.926;2023-02-22T00:45:35;29.57;;;17.73;;
46318;SDS011;32042;50.916;2.926;2023-02-22T00:48:02;30.67;;;19.00;;
46318;SDS011;32042;50.916;2.926;2023-02-22T00:50:30;31.80;;;19.07;;
46318;SDS011;32042;50.916;2.926;2023-02-22T00:52:57;27.20;;;17.97;;
46318;SDS011;32042;50.916;2.926;2023-02-22T00:55:25;31.93;;;18.80;;
46318;SDS011;32042;50.916;2.926;2023-02-22T00:57:51;32.63;;;18.70;;
46318;SDS011;32042;50.916;2.926;2023-02-22T01:00:28;34.37;;;19.60;;
46318;SDS011;32042;50.916;2.926;2023-02-22T01:02:54;31.87;;;19.10;;
46318;SDS011;32042;50.916;2.926;2023-02-22T01:05:21;31.13;;;19.87;;
46318;SDS011;32042;50.916;2.926;2023-02-22T01:07:48;34.30;;;17.80;;
46318;SDS011;32042;50.916;2.926;2023-02-22T01:10:16;31.23;;;18.90;;
46318;SDS011;32042;50.916;2.926;2023-02-22T01:12:43;33.07;;;18.70;;
46318;SDS011;32042;50.916;2.926;2023-02-22T01:15:09;31.37;;;18.67;;
46318;SDS011;32042;50.916;2.926;2023-02-22T01:17:36;26.30;;;18.47;;
46318;SDS011;32042;50.916;2.926;2023-02-22T01:20:04;28.07;;;17.83;;
46318;SDS011;32042;50.916;2.926;2023-02-22T01:22:40;28.10;;;18.77;;
46318;SDS011;32042;50.916;2.926;2023-02-22T01:25:07;29.30;;;19.13;;
46318;SDS011;32042;50.916;2.926;2023-02-22T01:27:34;27.50;;;18.57;;
46318;SDS011;32042;50.916;2.926;2023-02-22T01:30:00;26.00;;;17.73;;
46318;SDS011;32042;50.916;2.926;2023-02-22T01:32:32;25.43;;;18.33;;
46318;SDS011;32042;50.916;2.926;2023-02-22T01:34:59;27.80;;;17.83;;
46318;SDS011;32042;50.916;2.926;2023-02-22T01:37:25;23.57;;;16.73;;
46318;SDS011;32042;50.916;2.926;2023-02-22T01:39:51;25.30;;;17.73;;
46318;SDS011;32042;50.916;2.926;2023-02-22T01:42:17;27.23;;;17.67;;
46318;SDS011;32042;50.916;2.926;2023-02-22T01:44:43;31.53;;;18.60;;
46318;SDS011;32042;50.916;2.926;2023-02-22T01:47:09;27.97;;;18.80;;
46318;SDS011;32042;50.916;2.926;2023-02-22T01:49:43;28.90;;;19.20;;
46318;SDS011;32042;50.916;2.926;2023-02-22T01:52:13;27.97;;;17.90;;
46318;SDS011;32042;50.916;2.926;2023-02-22T01:54:41;28.13;;;18.13;;
46318;SDS011;32042;50.916;2.926;2023-02-22T01:57:12;30.67;;;18.77;;
46318;SDS011;32042;50.916;2.926;2023-02-22T01:59:41;29.03;;;19.03;;
46318;SDS011;32042;50.916;2.926;2023-02-22T02:02:09;28.40;;;18.73;;
46318;SDS011;32042;50.916;2.926;2023-02-22T02:04:36;28.50;;;19.00;;
46318;SDS011;32042;50.916;2.926;2023-02-22T02:07:04;27.67;;;18.27;;
46318;SDS011;32042;50.916;2.926;2023-02-22T02:12:09;32.33;;;18.87;;
46318;SDS011;32042;50.916;2.926;2023-02-22T02:14:36;27.90;;;17.63;;
46318;SDS011;32042;50.916;2.926;2023-02-22T02:17:04;31.23;;;19.17;;
46318;SDS011;32042;50.916;2.926;2023-02-22T02:27:24;29.73;;;18.97;;
46318;SDS011;32042;50.916;2.926;2023-02-22T02:36:00;32.07;;;18.33;;
46318;SDS011;32042;50.916;2.926;2023-02-22T02:38:58;35.40;;;20.07;;
46318;SDS011;32042;50.916;2.926;2023-02-22T02:46:13;30.70;;;20.17;;
46318;SDS011;32042;50.916;2.926;2023-02-22T02:48:42;33.23;;;21.50;;
46318;SDS011;32042;50.916;2.926;2023-02-22T02:51:10;36.33;;;21.30;;
46318;SDS011;32042;50.916;2.926;2023-02-22T02:53:39;35.67;;;20.77;;
46318;SDS011;32042;50.916;2.926;2023-02-22T02:56:06;35.33;;;22.13;;
46318;SDS011;32042;50.916;2.926;2023-02-22T02:58:32;38.43;;;22.40;;
46318;SDS011;32042;50.916;2.926;2023-02-22T03:00:59;33.77;;;21.63;;
46318;SDS011;32042;50.916;2.926;2023-02-22T03:03:34;35.23;;;21.03;;
46318;SDS011;32042;50.916;2.926;2023-02-22T03:08:40;34.10;;;20.97;;
46318;SDS011;32042;50.916;2.926;2023-02-22T03:26:43;35.80;;;21.83;;
46318;SDS011;32042;50.916;2.926;2023-02-22T03:29:12;41.13;;;24.20;;
46318;SDS011;32042;50.916;2.926;2023-02-22T03:31:41;43.60;;;23.83;;
46318;SDS011;32042;50.916;2.926;2023-02-22T03:34:10;38.90;;;23.17;;
46318;SDS011;32042;50.916;2.926;2023-02-22T03:36:46;39.87;;;24.53;;
46318;SDS011;32042;50.916;2.926;2023-02-22T03:39:13;39.30;;;22.97;;
46318;SDS011;32042;50.916;2.926;2023-02-22T03:41:40;38.03;;;22.57;;
46318;SDS011;32042;50.916;2.926;2023-02-22T03:44:09;37.60;;;23.43;;
46318;SDS011;32042;50.916;2.926;2023-02-22T03:46:39;38.27;;;23.97;;
46318;SDS011;32042;50.916;2.926;2023-02-22T03:49:11;39.97;;;23.83;;
46318;SDS011;32042;50.916;2.926;2023-02-22T03:51:39;32.30;;;21.27;;
46318;SDS011;32042;50.916;2.926;2023-02-22T03:54:05;38.80;;;23.33;;
46318;SDS011;32042;50.916;2.926;2023-02-22T03:56:33;37.10;;;22.73;;
46318;SDS011;32042;50.916;2.926;2023-02-22T03:59:02;35.70;;;21.87;;
46318;SDS011;32042;50.916;2.926;2023-02-22T04:01:29;34.03;;;21.53;;
46318;SDS011;32042;50.916;2.926;2023-02-22T04:03:55;35.30;;;22.57;;
46318;SDS011;32042;50.916;2.926;2023-02-22T04:06:21;37.80;;;21.93;;
46318;SDS011;32042;50.916;2.926;2023-02-22T04:08:47;37.30;;;23.50;;
46318;SDS011;32042;50.916;2.926;2023-02-22T04:11:13;33.30;;;22.17;;
46318;SDS011;32042;50.916;2.926;2023-02-22T04:13:39;37.17;;;23.00;;
46318;SDS011;32042;50.916;2.926;2023-02-22T04:16:05;38.13;;;22.00;;
46318;SDS011;32042;50.916;2.926;2023-02-22T04:18:31;34.30;;;22.03;;
46318;SDS011;32042;50.916;2.926;2023-02-22T04:20:57;33.97;;;22.33;;
46318;SDS011;32042;50.916;2.926;2023-02-22T04:23:23;33.87;;;21.63;;
46318;SDS011;32042;50.916;2.926;2023-02-22T04:25:50;34.80;;;20.70;;
46318;SDS011;32042;50.916;2.926;2023-02-22T04:28:16;33.87;;;21.57;;
46318;SDS011;32042;50.916;2.926;2023-02-22T04:30:43;34.77;;;23.23;;
46318;SDS011;32042;50.916;2.926;2023-02-22T04:33:09;35.50;;;22.07;;
46318;SDS011;32042;50.916;2.926;2023-02-22T04:35:35;36.27;;;23.57;;
46318;SDS011;32042;50.916;2.926;2023-02-22T04:38:02;34.83;;;22.00;;
46318;SDS011;32042;50.916;2.926;2023-02-22T04:40:28;40.03;;;24.60;;
46318;SDS011;32042;50.916;2.926;2023-02-22T04:42:54;40.97;;;24.10;;
46318;SDS011;32042;50.916;2.926;2023-02-22T04:45:20;39.37;;;24.23;;
46318;SDS011;32042;50.916;2.926;2023-02-22T04:47:46;40.87;;;23.93;;
46318;SDS011;32042;50.916;2.926;2023-02-22T04:50:13;36.73;;;22.60;;
46318;SDS011;32042;50.916;2.926;2023-02-22T04:52:40;36.97;;;23.50;;
46318;SDS011;32042;50.916;2.926;2023-02-22T04:55:06;41.33;;;24.17;;
46318;SDS011;32042;50.916;2.926;2023-02-22T04:57:32;37.83;;;23.47;;
46318;SDS011;32042;50.916;2.926;2023-02-22T04:59:58;42.30;;;23.27;;
46318;SDS011;32042;50.916;2.926;2023-02-22T05:02:24;35.53;;;22.00;;
46318;SDS011;32042;50.916;2.926;2023-02-22T05:04:51;43.23;;;24.03;;
46318;SDS011;32042;50.916;2.926;2023-02-22T05:07:17;37.33;;;22.83;;
46318;SDS011;32042;50.916;2.926;2023-02-22T05:09:43;36.07;;;23.40;;
46318;SDS011;32042;50.916;2.926;2023-02-22T05:12:09;38.67;;;22.97;;
46318;SDS011;32042;50.916;2.926;2023-02-22T05:14:35;36.73;;;23.53;;
46318;SDS011;32042;50.916;2.926;2023-02-22T05:17:01;39.43;;;24.27;;
46318;SDS011;32042;50.916;2.926;2023-02-22T05:19:27;41.60;;;24.60;;
46318;SDS011;32042;50.916;2.926;2023-02-22T05:21:54;40.23;;;24.07;;
46318;SDS011;32042;50.916;2.926;2023-02-22T05:24:20;38.17;;;23.70;;
46318;SDS011;32042;50.916;2.926;2023-02-22T05:26:46;40.83;;;23.60;;
46318;SDS011;32042;50.916;2.926;2023-02-22T05:29:15;40.50;;;23.27;;
46318;SDS011;32042;50.916;2.926;2023-02-22T05:31:41;39.83;;;24.87;;
46318;SDS011;32042;50.916;2.926;2023-02-22T05:34:07;40.23;;;24.80;;
46318;SDS011;32042;50.916;2.926;2023-02-22T05:36:33;44.43;;;25.23;;
46318;SDS011;32042;50.916;2.926;2023-02-22T05:38:59;37.70;;;24.73;;
46318;SDS011;32042;50.916;2.926;2023-02-22T05:41:25;35.70;;;23.17;;
46318;SDS011;32042;50.916;2.926;2023-02-22T05:43:51;39.93;;;24.87;;
46318;SDS011;32042;50.916;2.926;2023-02-22T05:46:17;34.43;;;23.67;;
46318;SDS011;32042;50.916;2.926;2023-02-22T05:48:43;42.37;;;24.50;;
46318;SDS011;32042;50.916;2.926;2023-02-22T05:51:09;39.07;;;24.57;;
46318;SDS011;32042;50.916;2.926;2023-02-22T05:53:35;34.87;;;23.67;;
46318;SDS011;32042;50.916;2.926;2023-02-22T05:56:02;34.90;;;23.33;;
46318;SDS011;32042;50.916;2.926;2023-02-22T05:58:28;33.17;;;23.40;;
46318;SDS011;32042;50.916;2.926;2023-02-22T06:00:54;35.90;;;22.27;;
46318;SDS011;32042;50.916;2.926;2023-02-22T06:03:20;37.27;;;24.77;;
46318;SDS011;32042;50.916;2.926;2023-02-22T06:05:46;35.23;;;23.63;;
46318;SDS011;32042;50.916;2.926;2023-02-22T06:08:12;33.43;;;22.70;;
46318;SDS011;32042;50.916;2.926;2023-02-22T06:10:38;33.90;;;22.97;;
46318;SDS011;32042;50.916;2.926;2023-02-22T06:13:04;33.00;;;23.47;;
46318;SDS011;32042;50.916;2.926;2023-02-22T06:15:30;33.20;;;22.93;;
46318;SDS011;32042;50.916;2.926;2023-02-22T06:17:57;36.93;;;23.13;;
46318;SDS011;32042;50.916;2.926;2023-02-22T06:20:24;31.23;;;23.33;;
46318;SDS011;32042;50.916;2.926;2023-02-22T06:22:51;33.37;;;23.20;;
46318;SDS011;32042;50.916;2.926;2023-02-22T06:25:19;35.20;;;23.13;;
46318;SDS011;32042;50.916;2.926;2023-02-22T06:27:46;30.57;;;22.00;;
46318;SDS011;32042;50.916;2.926;2023-02-22T06:30:13;33.13;;;22.90;;
46318;SDS011;32042;50.916;2.926;2023-02-22T06:32:41;37.37;;;22.97;;
46318;SDS011;32042;50.916;2.926;2023-02-22T06:35:07;37.27;;;23.13;;
46318;SDS011;32042;50.916;2.926;2023-02-22T06:37:33;36.60;;;22.57;;
46318;SDS011;32042;50.916;2.926;2023-02-22T06:39:59;34.33;;;24.33;;
46318;SDS011;32042;50.916;2.926;2023-02-22T06:42:25;32.20;;;23.33;;
46318;SDS011;32042;50.916;2.926;2023-02-22T06:44:51;34.33;;;22.83;;
46318;SDS011;32042;50.916;2.926;2023-02-22T06:47:17;33.80;;;22.60;;
46318;SDS011;32042;50.916;2.926;2023-02-22T06:49:43;38.77;;;23.90;;
46318;SDS011;32042;50.916;2.926;2023-02-22T06:52:09;35.43;;;23.90;;
46318;SDS011;32042;50.916;2.926;2023-02-22T06:54:35;34.20;;;25.30;;
46318;SDS011;32042;50.916;2.926;2023-02-22T06:57:01;40.43;;;25.73;;
46318;SDS011;32042;50.916;2.926;2023-02-22T06:59:27;37.00;;;25.40;;
46318;SDS011;32042;50.916;2.926;2023-02-22T07:01:53;31.83;;;24.30;;
46318;SDS011;32042;50.916;2.926;2023-02-22T07:04:20;35.07;;;24.57;;
46318;SDS011;32042;50.916;2.926;2023-02-22T07:06:46;33.90;;;23.77;;
46318;SDS011;32042;50.916;2.926;2023-02-22T07:09:12;32.43;;;23.83;;
46318;SDS011;32042;50.916;2.926;2023-02-22T07:11:39;34.50;;;23.57;;
46318;SDS011;32042;50.916;2.926;2023-02-22T07:14:05;33.33;;;24.00;;
46318;SDS011;32042;50.916;2.926;2023-02-22T07:16:31;35.77;;;23.63;;
46318;SDS011;32042;50.916;2.926;2023-02-22T07:18:58;36.10;;;23.80;;
46318;SDS011;32042;50.916;2.926;2023-02-22T07:21:27;35.27;;;23.27;;
46318;SDS011;32042;50.916;2.926;2023-02-22T07:23:54;37.73;;;24.67;;
46318;SDS011;32042;50.916;2.926;2023-02-22T07:26:20;33.60;;;23.27;;
46318;SDS011;32042;50.916;2.926;2023-02-22T07:28:47;36.33;;;24.63;;
46318;SDS011;32042;50.916;2.926;2023-02-22T07:31:13;32.80;;;22.87;;
46318;SDS011;32042;50.916;2.926;2023-02-22T07:33:39;32.57;;;23.23;;
46318;SDS011;32042;50.916;2.926;2023-02-22T07:36:05;32.90;;;22.97;;
46318;SDS011;32042;50.916;2.926;2023-02-22T07:38:31;34.07;;;23.43;;
46318;SDS011;32042;50.916;2.926;2023-02-22T07:40:57;33.27;;;23.87;;
46318;SDS011;32042;50.916;2.926;2023-02-22T07:43:24;33.33;;;24.10;;
46318;SDS011;32042;50.916;2.926;2023-02-22T07:45:51;33.87;;;24.53;;
46318;SDS011;32042;50.916;2.926;2023-02-22T07:48:18;32.37;;;23.93;;
46318;SDS011;32042;50.916;2.926;2023-02-22T07:50:44;36.50;;;24.00;;
46318;SDS011;32042;50.916;2.926;2023-02-22T07:53:12;35.57;;;23.70;;
46318;SDS011;32042;50.916;2.926;2023-02-22T07:55:38;36.43;;;24.73;;
46318;SDS011;32042;50.916;2.926;2023-02-22T07:58:05;34.77;;;23.13;;
46318;SDS011;32042;50.916;2.926;2023-02-22T08:00:36;31.83;;;24.07;;
46318;SDS011;32042;50.916;2.926;2023-02-22T08:03:04;32.57;;;23.37;;
46318;SDS011;32042;50.916;2.926;2023-02-22T08:05:31;35.50;;;24.60;;
46318;SDS011;32042;50.916;2.926;2023-02-22T08:07:57;38.73;;;24.73;;
46318;SDS011;32042;50.916;2.926;2023-02-22T08:10:24;37.00;;;25.23;;
46318;SDS011;32042;50.916;2.926;2023-02-22T08:12:51;40.53;;;26.70;;
46318;SDS011;32042;50.916;2.926;2023-02-22T08:15:18;45.93;;;29.03;;
46318;SDS011;32042;50.916;2.926;2023-02-22T08:17:45;45.30;;;28.97;;
46318;SDS011;32042;50.916;2.926;2023-02-22T08:20:11;36.87;;;26.47;;
46318;SDS011;32042;50.916;2.926;2023-02-22T08:22:37;36.93;;;26.30;;
46318;SDS011;32042;50.916;2.926;2023-02-22T08:25:04;37.93;;;27.10;;
46318;SDS011;32042;50.916;2.926;2023-02-22T08:27:30;34.53;;;26.10;;
46318;SDS011;32042;50.916;2.926;2023-02-22T08:29:57;36.97;;;27.73;;
46318;SDS011;32042;50.916;2.926;2023-02-22T08:32:23;37.00;;;27.93;;
46318;SDS011;32042;50.916;2.926;2023-02-22T08:34:50;38.03;;;28.47;;
46318;SDS011;32042;50.916;2.926;2023-02-22T08:37:16;42.33;;;27.20;;
46318;SDS011;32042;50.916;2.926;2023-02-22T08:39:42;35.83;;;27.03;;
46318;SDS011;32042;50.916;2.926;2023-02-22T08:42:08;39.63;;;27.87;;
46318;SDS011;32042;50.916;2.926;2023-02-22T08:44:35;36.90;;;26.80;;
46318;SDS011;32042;50.916;2.926;2023-02-22T08:47:01;34.33;;;26.70;;
46318;SDS011;32042;50.916;2.926;2023-02-22T08:49:27;40.23;;;27.33;;
46318;SDS011;32042;50.916;2.926;2023-02-22T08:51:53;39.20;;;28.50;;
46318;SDS011;32042;50.916;2.926;2023-02-22T08:54:19;40.80;;;28.77;;
46318;SDS011;32042;50.916;2.926;2023-02-22T08:56:46;34.33;;;27.00;;
46318;SDS011;32042;50.916;2.926;2023-02-22T08:59:12;37.67;;;28.63;;
46318;SDS011;32042;50.916;2.926;2023-02-22T09:01:38;37.83;;;28.73;;
46318;SDS011;32042;50.916;2.926;2023-02-22T09:04:05;38.50;;;28.43;;
46318;SDS011;32042;50.916;2.926;2023-02-22T09:06:31;42.13;;;29.20;;
46318;SDS011;32042;50.916;2.926;2023-02-22T09:08:57;49.67;;;30.17;;
46318;SDS011;32042;50.916;2.926;2023-02-22T09:11:23;48.13;;;32.27;;
46318;SDS011;32042;50.916;2.926;2023-02-22T09:13:49;46.77;;;31.40;;
46318;SDS011;32042;50.916;2.926;2023-02-22T09:16:15;42.07;;;29.83;;
46318;SDS011;32042;50.916;2.926;2023-02-22T09:18:41;43.83;;;31.03;;
46318;SDS011;32042;50.916;2.926;2023-02-22T09:21:07;47.37;;;32.47;;
46318;SDS011;32042;50.916;2.926;2023-02-22T09:23:33;43.00;;;30.37;;
46318;SDS011;32042;50.916;2.926;2023-02-22T09:25:59;49.30;;;32.13;;
46318;SDS011;32042;50.916;2.926;2023-02-22T09:28:26;47.47;;;34.17;;
46318;SDS011;32042;50.916;2.926;2023-02-22T09:30:52;45.17;;;32.17;;
46318;SDS011;32042;50.916;2.926;2023-02-22T09:33:19;46.10;;;34.17;;
46318;SDS011;32042;50.916;2.926;2023-02-22T09:35:46;54.93;;;34.83;;
46318;SDS011;32042;50.916;2.926;2023-02-22T09:38:14;47.30;;;34.17;;
46318;SDS011;32042;50.916;2.926;2023-02-22T09:41:01;50.93;;;36.13;;
46318;SDS011;32042;50.916;2.926;2023-02-22T09:48:37;55.80;;;37.03;;
46318;SDS011;32042;50.916;2.926;2023-02-22T09:51:07;55.33;;;37.70;;
46318;SDS011;32042;50.916;2.926;2023-02-22T09:53:40;59.43;;;39.10;;
46318;SDS011;32042;50.916;2.926;2023-02-22T09:56:09;58.60;;;39.00;;
46318;SDS011;32042;50.916;2.926;2023-02-22T09:58:39;66.63;;;39.23;;
46318;SDS011;32042;50.916;2.926;2023-02-22T10:03:57;63.33;;;40.10;;
46318;SDS011;32042;50.916;2.926;2023-02-22T10:06:24;71.30;;;42.73;;
46318;SDS011;32042;50.916;2.926;2023-02-22T10:08:51;73.47;;;42.47;;
46318;SDS011;32042;50.916;2.926;2023-02-22T10:16:33;84.50;;;51.13;;
46318;SDS011;32042;50.916;2.926;2023-02-22T10:26:32;93.27;;;50.10;;
46318;SDS011;32042;50.916;2.926;2023-02-22T10:29:02;89.23;;;46.10;;
46318;SDS011;32042;50.916;2.926;2023-02-22T10:31:31;85.10;;;48.27;;
46318;SDS011;32042;50.916;2.926;2023-02-22T10:34:03;91.53;;;48.17;;
46318;SDS011;32042;50.916;2.926;2023-02-22T10:36:30;83.57;;;47.47;;
46318;SDS011;32042;50.916;2.926;2023-02-22T10:39:09;94.57;;;49.03;;
46318;SDS011;32042;50.916;2.926;2023-02-22T10:41:40;84.87;;;46.13;;
46318;SDS011;32042;50.916;2.926;2023-02-22T10:44:07;87.90;;;47.03;;
46318;SDS011;32042;50.916;2.926;2023-02-22T10:46:33;90.80;;;48.07;;
46318;SDS011;32042;50.916;2.926;2023-02-22T10:49:01;81.20;;;48.17;;
46318;SDS011;32042;50.916;2.926;2023-02-22T10:51:28;87.80;;;47.27;;
46318;SDS011;32042;50.916;2.926;2023-02-22T10:54:09;89.90;;;49.50;;
46318;SDS011;32042;50.916;2.926;2023-02-22T10:56:48;86.50;;;46.10;;
46318;SDS011;32042;50.916;2.926;2023-02-22T10:59:28;85.23;;;46.03;;
46318;SDS011;32042;50.916;2.926;2023-02-22T11:01:58;83.00;;;46.27;;
46318;SDS011;32042;50.916;2.926;2023-02-22T11:04:24;85.47;;;46.53;;
46318;SDS011;32042;50.916;2.926;2023-02-22T11:09:25;95.60;;;47.63;;
46318;SDS011;32042;50.916;2.926;2023-02-22T11:12:09;97.03;;;48.23;;
46318;SDS011;32042;50.916;2.926;2023-02-22T11:14:36;97.07;;;50.00;;
46318;SDS011;32042;50.916;2.926;2023-02-22T11:17:05;95.60;;;49.00;;
46318;SDS011;32042;50.916;2.926;2023-02-22T11:19:32;101.93;;;49.77;;
46318;SDS011;32042;50.916;2.926;2023-02-22T11:22:07;102.67;;;48.93;;
46318;SDS011;32042;50.916;2.926;2023-02-22T11:24:40;103.00;;;50.53;;
46318;SDS011;32042;50.916;2.926;2023-02-22T11:27:09;105.57;;;46.50;;
46318;SDS011;32042;50.916;2.926;2023-02-22T11:29:44;107.97;;;51.43;;
46318;SDS011;32042;50.916;2.926;2023-02-22T11:32:16;100.93;;;49.40;;
46318;SDS011;32042;50.916;2.926;2023-02-22T11:34:45;97.87;;;49.17;;
46318;SDS011;32042;50.916;2.926;2023-02-22T11:39:47;113.93;;;51.37;;
46318;SDS011;32042;50.916;2.926;2023-02-22T11:42:25;105.83;;;50.27;;
46318;SDS011;32042;50.916;2.926;2023-02-22T11:52:53;100.00;;;48.73;;
46318;SDS011;32042;50.916;2.926;2023-02-22T11:57:59;97.57;;;48.23;;
46318;SDS011;32042;50.916;2.926;2023-02-22T12:21:47;88.40;;;47.20;;
46318;SDS011;32042;50.916;2.926;2023-02-22T12:24:17;84.80;;;46.57;;
46318;SDS011;32042;50.916;2.926;2023-02-22T12:26:46;81.20;;;45.70;;
46318;SDS011;32042;50.916;2.926;2023-02-22T12:29:15;81.97;;;45.87;;
46318;SDS011;32042;50.916;2.926;2023-02-22T12:31:44;84.30;;;45.70;;
46318;SDS011;32042;50.916;2.926;2023-02-22T12:42:23;84.83;;;50.33;;
46318;SDS011;32042;50.916;2.926;2023-02-22T12:44:59;83.50;;;45.57;;
46318;SDS011;32042;50.916;2.926;2023-02-22T12:47:36;82.17;;;45.43;;
46318;SDS011;32042;50.916;2.926;2023-02-22T12:50:16;80.07;;;44.60;;
46318;SDS011;32042;50.916;2.926;2023-02-22T12:52:46;71.80;;;41.77;;
46318;SDS011;32042;50.916;2.926;2023-02-22T12:55:28;68.33;;;40.13;;
46318;SDS011;32042;50.916;2.926;2023-02-22T13:00:47;61.83;;;35.83;;
46318;SDS011;32042;50.916;2.926;2023-02-22T13:17:17;52.13;;;30.30;;
46318;SDS011;32042;50.916;2.926;2023-02-22T13:20:07;51.27;;;30.27;;
46318;SDS011;32042;50.916;2.926;2023-02-22T13:22:47;57.93;;;29.50;;
46318;SDS011;32042;50.916;2.926;2023-02-22T13:25:17;47.03;;;27.33;;
46318;SDS011;32042;50.916;2.926;2023-02-22T13:40:47;55.10;;;30.60;;
46318;SDS011;32042;50.916;2.926;2023-02-22T13:46:10;51.73;;;28.93;;
46318;SDS011;32042;50.916;2.926;2023-02-22T13:48:54;55.50;;;32.07;;
46318;SDS011;32042;50.916;2.926;2023-02-22T13:51:32;48.27;;;28.97;;
46318;SDS011;32042;50.916;2.926;2023-02-22T13:54:02;48.93;;;27.27;;
46318;SDS011;32042;50.916;2.926;2023-02-22T13:56:30;43.40;;;27.03;;
46318;SDS011;32042;50.916;2.926;2023-02-22T13:58:57;46.43;;;26.30;;
46318;SDS011;32042;50.916;2.926;2023-02-22T14:01:37;45.57;;;27.73;;
46318;SDS011;32042;50.916;2.926;2023-02-22T14:06:48;41.63;;;23.83;;
46318;SDS011;32042;50.916;2.926;2023-02-22T14:09:15;41.37;;;25.67;;
46318;SDS011;32042;50.916;2.926;2023-02-22T14:11:46;37.40;;;22.10;;
46318;SDS011;32042;50.916;2.926;2023-02-22T14:14:18;39.40;;;23.00;;
46318;SDS011;32042;50.916;2.926;2023-02-22T14:16:53;41.33;;;23.57;;
46318;SDS011;32042;50.916;2.926;2023-02-22T14:19:30;38.63;;;23.70;;
46318;SDS011;32042;50.916;2.926;2023-02-22T14:21:57;39.93;;;23.30;;
46318;SDS011;32042;50.916;2.926;2023-02-22T14:24:26;40.73;;;22.93;;
46318;SDS011;32042;50.916;2.926;2023-02-22T14:26:53;42.90;;;23.93;;
46318;SDS011;32042;50.916;2.926;2023-02-22T14:29:20;43.50;;;24.83;;
46318;SDS011;32042;50.916;2.926;2023-02-22T14:34:21;40.83;;;23.33;;
46318;SDS011;32042;50.916;2.926;2023-02-22T14:37:05;39.27;;;22.20;;
46318;SDS011;32042;50.916;2.926;2023-02-22T14:39:36;38.90;;;22.80;;
46318;SDS011;32042;50.916;2.926;2023-02-22T14:44:40;37.97;;;21.47;;
46318;SDS011;32042;50.916;2.926;2023-02-22T14:47:13;37.87;;;21.07;;
46318;SDS011;32042;50.916;2.926;2023-02-22T14:49:41;37.43;;;21.60;;
46318;SDS011;32042;50.916;2.926;2023-02-22T14:52:22;36.13;;;21.87;;
46318;SDS011;32042;50.916;2.926;2023-02-22T14:54:56;34.67;;;20.77;;
46318;SDS011;32042;50.916;2.926;2023-02-22T14:57:29;31.27;;;19.10;;
46318;SDS011;32042;50.916;2.926;2023-02-22T15:02:26;34.13;;;19.87;;
46318;SDS011;32042;50.916;2.926;2023-02-22T15:04:53;31.63;;;20.23;;
46318;SDS011;32042;50.916;2.926;2023-02-22T15:09:51;36.50;;;21.73;;
46318;SDS011;32042;50.916;2.926;2023-02-22T15:12:22;38.90;;;22.63;;
46318;SDS011;32042;50.916;2.926;2023-02-22T15:14:49;36.80;;;22.50;;
46318;SDS011;32042;50.916;2.926;2023-02-22T15:17:19;37.77;;;21.60;;
46318;SDS011;32042;50.916;2.926;2023-02-22T15:19:46;38.37;;;22.47;;
46318;SDS011;32042;50.916;2.926;2023-02-22T15:22:34;32.17;;;21.47;;
46318;SDS011;32042;50.916;2.926;2023-02-22T15:25:02;35.90;;;21.77;;
46318;SDS011;32042;50.916;2.926;2023-02-22T15:27:29;37.33;;;21.17;;
46318;SDS011;32042;50.916;2.926;2023-02-22T15:30:00;32.43;;;21.07;;
46318;SDS011;32042;50.916;2.926;2023-02-22T15:34:54;33.70;;;21.93;;
46318;SDS011;32042;50.916;2.926;2023-02-22T15:37:22;42.67;;;23.63;;
46318;SDS011;32042;50.916;2.926;2023-02-22T15:40:04;57.87;;;30.93;;
46318;SDS011;32042;50.916;2.926;2023-02-22T15:42:30;35.53;;;22.53;;
46318;SDS011;32042;50.916;2.926;2023-02-22T15:44:56;39.40;;;24.67;;
46318;SDS011;32042;50.916;2.926;2023-02-22T15:47:23;36.00;;;24.00;;
46318;SDS011;32042;50.916;2.926;2023-02-22T15:52:39;34.77;;;22.63;;
46318;SDS011;32042;50.916;2.926;2023-02-22T15:55:08;38.10;;;22.73;;
46318;SDS011;32042;50.916;2.926;2023-02-22T15:57:35;34.03;;;23.07;;
46318;SDS011;32042;50.916;2.926;2023-02-22T16:00:01;34.97;;;22.27;;
46318;SDS011;32042;50.916;2.926;2023-02-22T16:04:59;37.83;;;23.33;;
46318;SDS011;32042;50.916;2.926;2023-02-22T16:07:26;35.33;;;22.60;;
46318;SDS011;32042;50.916;2.926;2023-02-22T16:09:52;36.53;;;23.13;;
46318;SDS011;32042;50.916;2.926;2023-02-22T16:14:45;38.37;;;23.77;;
46318;SDS011;32042;50.916;2.926;2023-02-22T16:20:44;42.03;;;23.30;;
46318;SDS011;32042;50.916;2.926;2023-02-22T16:22:46;34.57;;;22.53;;
46318;SDS011;32042;50.916;2.926;2023-02-22T16:30:22;36.63;;;22.83;;
46318;SDS011;32042;50.916;2.926;2023-02-22T16:32:49;37.03;;;23.40;;
46318;SDS011;32042;50.916;2.926;2023-02-22T16:35:15;41.03;;;23.77;;
46318;SDS011;32042;50.916;2.926;2023-02-22T16:37:48;39.20;;;23.70;;
46318;SDS011;32042;50.916;2.926;2023-02-22T16:40:21;41.20;;;23.67;;
46318;SDS011;32042;50.916;2.926;2023-02-22T16:42:48;43.73;;;22.93;;
46318;SDS011;32042;50.916;2.926;2023-02-22T16:45:18;40.07;;;24.27;;
46318;SDS011;32042;50.916;2.926;2023-02-22T16:47:45;38.17;;;22.87;;
46318;SDS011;32042;50.916;2.926;2023-02-22T16:50:11;37.80;;;22.17;;
46318;SDS011;32042;50.916;2.926;2023-02-22T16:52:38;46.13;;;23.50;;
46318;SDS011;32042;50.916;2.926;2023-02-22T16:55:05;38.93;;;22.43;;
46318;SDS011;32042;50.916;2.926;2023-02-22T16:57:34;44.53;;;24.37;;
46318;SDS011;32042;50.916;2.926;2023-02-22T17:00:00;45.77;;;24.10;;
46318;SDS011;32042;50.916;2.926;2023-02-22T17:02:26;46.30;;;24.20;;
46318;SDS011;32042;50.916;2.926;2023-02-22T17:04:52;46.73;;;23.93;;
46318;SDS011;32042;50.916;2.926;2023-02-22T17:07:19;48.60;;;25.30;;
46318;SDS011;32042;50.916;2.926;2023-02-22T17:09:47;46.47;;;24.37;;
46318;SDS011;32042;50.916;2.926;2023-02-22T17:12:15;54.13;;;30.23;;
46318;SDS011;32042;50.916;2.926;2023-02-22T17:14:41;50.90;;;25.13;;
46318;SDS011;32042;50.916;2.926;2023-02-22T17:17:09;48.63;;;24.93;;